createdAt,value
2019-01-10T00:00:14.865Z,75.65
2019-01-10T00:01:19.527Z,72.20
2019-01-10T00:02:22.822Z,63.95
2019-01-10T00:03:26.116Z,63.17
2019-01-10T00:04:29.418Z,59.10
2019-01-10T00:05:32.811Z,56.95
2019-01-10T00:06:36.502Z,61.37
2019-01-10T00:07:39.955Z,55.43
2019-01-10T00:08:43.240Z,65.32
2019-01-10T00:09:46.887Z,59.67
2019-01-10T00:10:50.542Z,53.73
2019-01-10T00:11:53.836Z,62.13
2019-01-10T00:12:57.190Z,66.55
2019-01-10T00:14:00.477Z,78.37
2019-01-10T00:15:05.155Z,68.07
2019-01-10T00:16:08.484Z,67.75
2019-01-10T00:17:11.766Z,72.42
2019-01-10T00:18:15.126Z,61.58
2019-01-10T00:19:18.418Z,80.83
2019-01-10T00:20:21.697Z,87.60
2019-01-10T00:21:25.100Z,92.22
2019-01-10T00:22:28.467Z,85.70
2019-01-10T00:23:31.748Z,77.00
2019-01-10T00:24:35.038Z,68.42
2019-01-10T00:25:38.334Z,74.72
2019-01-10T00:26:42.084Z,67.20
2019-01-10T00:27:45.436Z,70.32
2019-01-10T00:28:49.027Z,69.07
2019-01-10T00:29:52.355Z,68.10
2019-01-10T00:30:55.648Z,67.82
2019-01-10T00:31:58.933Z,62.05
2019-01-10T00:33:02.225Z,70.55
2019-01-10T00:34:05.512Z,73.87
2019-01-10T00:35:09.865Z,67.82
2019-01-10T00:36:13.155Z,64.25
2019-01-10T00:37:16.465Z,57.75
2019-01-10T00:38:19.793Z,62.48
2019-01-10T00:39:23.143Z,59.33
2019-01-10T00:40:26.441Z,65.05
2019-01-10T00:41:29.726Z,61.45
2019-01-10T00:42:33.087Z,66.85
2019-01-10T00:43:36.510Z,58.90
2019-01-10T00:44:39.798Z,59.23
2019-01-10T00:45:43.091Z,60.38
2019-01-10T00:46:46.372Z,65.42
2019-01-10T00:47:49.730Z,66.92
2019-01-10T00:48:53.141Z,67.12
2019-01-10T00:49:56.421Z,65.80
2019-01-10T00:51:00.066Z,70.85
2019-01-10T00:52:03.493Z,76.82
2019-01-10T00:53:06.780Z,83.30
2019-01-10T00:54:10.491Z,81.63
2019-01-10T00:55:13.861Z,82.80
2019-01-10T00:56:17.444Z,72.50
2019-01-10T00:57:20.731Z,71.00
2019-01-10T00:58:24.025Z,67.55
2019-01-10T00:59:27.343Z,69.10
2019-01-10T01:00:30.617Z,71.12
2019-01-10T01:01:33.904Z,72.20
2019-01-10T01:02:37.582Z,64.55
2019-01-10T01:03:40.907Z,71.55
2019-01-10T01:04:44.228Z,71.72
2019-01-10T01:05:47.579Z,61.15
2019-01-10T01:06:50.860Z,64.17
2019-01-10T01:07:54.146Z,64.25
2019-01-10T01:08:57.878Z,68.70
2019-01-10T01:10:01.155Z,62.85
2019-01-10T01:11:04.446Z,62.48
2019-01-10T01:12:07.733Z,69.92
2019-01-10T01:13:11.076Z,68.87
2019-01-10T01:14:14.468Z,67.45
2019-01-10T01:15:18.731Z,68.67
2019-01-10T01:16:22.016Z,67.15
2019-01-10T01:17:25.299Z,61.42
2019-01-10T01:18:28.588Z,68.80
2019-01-10T01:19:31.878Z,66.30
2019-01-10T01:20:35.268Z,70.10
2019-01-10T01:21:38.568Z,64.53
2019-01-10T01:22:41.849Z,54.80
2019-01-10T01:23:45.507Z,62.15
2019-01-10T01:24:48.788Z,56.15
2019-01-10T01:25:52.095Z,57.17
2019-01-10T01:26:55.396Z,59.60
2019-01-10T01:27:59.089Z,56.30
2019-01-10T01:29:02.410Z,56.63
2019-01-10T01:30:11.726Z,58.45
2019-01-10T01:31:15.045Z,60.52
2019-01-10T01:32:18.327Z,54.40
2019-01-10T01:33:21.610Z,61.20
2019-01-10T01:34:24.940Z,56.13
2019-01-10T01:35:28.621Z,50.58
2019-01-10T01:36:31.947Z,56.30
2019-01-10T01:37:35.264Z,55.75
2019-01-10T01:38:38.589Z,58.08
2019-01-10T01:39:41.876Z,56.18
2019-01-10T01:40:45.162Z,54.95
2019-01-10T01:41:48.559Z,58.05
2019-01-10T01:42:51.837Z,57.88
2019-01-10T01:43:55.185Z,64.75
2019-01-10T01:44:58.852Z,60.65
2019-01-10T01:46:02.138Z,65.05
2019-01-10T01:47:05.526Z,59.73
2019-01-10T01:48:08.869Z,66.87
2019-01-10T01:49:12.322Z,68.12
2019-01-10T01:50:20.956Z,72.72
2019-01-10T01:51:24.367Z,70.78
2019-01-10T01:52:27.681Z,93.80
2019-01-10T01:53:31.031Z,96.47
2019-01-10T01:54:34.436Z,101.15
2019-01-10T01:55:37.691Z,97.70
2019-01-10T01:56:40.971Z,87.37
2019-01-10T01:57:44.299Z,80.28
2019-01-10T01:58:47.731Z,80.42
2019-01-10T01:59:51.015Z,81.08
2019-01-10T02:00:54.307Z,72.55
2019-01-10T02:01:57.592Z,76.05
2019-01-10T02:03:00.912Z,72.55
2019-01-10T02:04:04.250Z,65.03
2019-01-10T02:05:08.718Z,72.37
2019-01-10T02:06:12.014Z,70.60
2019-01-10T02:07:15.734Z,69.47
2019-01-10T02:08:19.125Z,61.63
2019-01-10T02:09:22.420Z,61.75
2019-01-10T02:10:26.747Z,69.40
2019-01-10T02:11:30.100Z,64.35
2019-01-10T02:12:33.393Z,74.27
2019-01-10T02:13:36.807Z,74.75
2019-01-10T02:14:40.098Z,77.95
2019-01-10T02:15:43.459Z,95.45
2019-01-10T02:16:46.740Z,92.62
2019-01-10T02:17:50.107Z,89.37
2019-01-10T02:18:53.757Z,80.92
2019-01-10T02:19:57.045Z,90.20
2019-01-10T02:21:00.413Z,85.25
2019-01-10T02:22:04.016Z,88.52
2019-01-10T02:23:07.413Z,81.87
2019-01-10T02:24:10.703Z,90.15
2019-01-10T02:25:18.422Z,90.17
2019-01-10T02:26:21.827Z,87.82
2019-01-10T02:27:25.124Z,80.67
2019-01-10T02:28:28.996Z,77.92
2019-01-10T02:29:32.365Z,81.40
2019-01-10T02:30:41.768Z,73.57
2019-01-10T02:31:40.818Z,80.67
2019-01-10T02:32:44.106Z,85.22
2019-01-10T02:33:47.712Z,82.50
2019-01-10T02:34:50.991Z,73.70
2019-01-10T02:35:54.274Z,70.32
2019-01-10T02:36:57.560Z,72.12
2019-01-10T02:38:00.883Z,72.55
2019-01-10T02:39:05.805Z,89.40
2019-01-10T02:40:10.076Z,85.85
2019-01-10T02:41:13.341Z,86.35
2019-01-10T02:42:16.958Z,74.67
2019-01-10T02:43:26.294Z,73.28
2019-01-10T02:44:25.341Z,75.90
2019-01-10T02:45:28.633Z,75.65
2019-01-10T02:46:31.923Z,76.72
2019-01-10T02:47:35.227Z,82.08
2019-01-10T02:48:38.573Z,74.95
2019-01-10T02:49:42.228Z,83.47
2019-01-10T02:50:45.531Z,95.53
2019-01-10T02:51:48.918Z,100.30
2019-01-10T02:52:52.228Z,93.50
2019-01-10T02:53:55.948Z,88.27
2019-01-10T02:54:59.233Z,91.60
2019-01-10T02:56:02.594Z,90.15
2019-01-10T02:57:05.872Z,84.75
2019-01-10T02:58:09.203Z,90.03
2019-01-10T02:59:12.484Z,88.07
2019-01-10T03:00:18.785Z,89.10
2019-01-10T03:01:22.141Z,92.30
2019-01-10T03:02:25.429Z,102.78
2019-01-10T03:03:28.734Z,99.37
2019-01-10T03:04:32.061Z,104.32
2019-01-10T03:05:35.383Z,97.78
2019-01-10T03:06:39.213Z,104.20
2019-01-10T03:07:42.507Z,106.60
2019-01-10T03:08:45.808Z,105.75
2019-01-10T03:09:49.104Z,97.62
2019-01-10T03:10:52.387Z,107.05
2019-01-10T03:11:55.677Z,114.05
2019-01-10T03:12:58.981Z,106.63
2019-01-10T03:14:02.407Z,107.65
2019-01-10T03:15:07.040Z,111.15
2019-01-10T03:16:10.333Z,121.02
2019-01-10T03:17:13.629Z,122.28
2019-01-10T03:18:16.922Z,117.53
2019-01-10T03:19:20.320Z,114.97
2019-01-10T03:20:23.745Z,114.40
2019-01-10T03:21:27.076Z,115.05
2019-01-10T03:22:30.373Z,104.85
2019-01-10T03:23:33.701Z,101.50
2019-01-10T03:24:37.358Z,101.62
2019-01-10T03:25:40.737Z,104.45
2019-01-10T03:26:44.123Z,110.85
2019-01-10T03:27:47.984Z,111.28
2019-01-10T03:28:51.282Z,102.00
2019-01-10T03:29:54.613Z,108.75
2019-01-10T03:30:57.918Z,99.28
2019-01-10T03:32:01.272Z,98.12
2019-01-10T03:33:04.559Z,96.12
2019-01-10T03:34:07.846Z,103.55
2019-01-10T03:35:11.622Z,109.70
2019-01-10T03:36:14.920Z,106.37
2019-01-10T03:37:18.208Z,103.20
2019-01-10T03:38:21.517Z,102.60
2019-01-10T03:39:24.798Z,96.00
2019-01-10T03:40:28.508Z,94.62
2019-01-10T03:41:31.796Z,110.00
2019-01-10T03:42:35.108Z,106.22
2019-01-10T03:43:46.868Z,117.87
2019-01-10T03:44:43.418Z,117.53
2019-01-10T03:45:46.718Z,120.62
2019-01-10T03:46:50.001Z,117.33
2019-01-10T03:47:53.289Z,118.90
2019-01-10T03:48:56.648Z,111.88
2019-01-10T03:49:59.935Z,112.50
2019-01-10T03:51:03.265Z,106.85
2019-01-10T03:52:06.645Z,118.95
2019-01-10T03:53:09.934Z,123.28
2019-01-10T03:54:13.307Z,120.45
2019-01-10T03:55:16.664Z,116.97
2019-01-10T03:56:19.996Z,120.15
2019-01-10T03:57:23.288Z,105.37
2019-01-10T03:58:26.669Z,100.85
2019-01-10T03:59:30.039Z,109.07
2019-01-10T04:00:33.330Z,107.30
2019-01-10T04:01:36.631Z,105.20
2019-01-10T04:02:39.933Z,111.30
2019-01-10T04:03:43.229Z,105.90
2019-01-10T04:04:46.934Z,115.55
2019-01-10T04:05:50.699Z,105.92
2019-01-10T04:06:54.004Z,121.35
2019-01-10T04:07:57.289Z,123.95
2019-01-10T04:09:00.595Z,130.65
2019-01-10T04:10:05.119Z,123.18
2019-01-10T04:11:08.482Z,127.95
2019-01-10T04:12:11.820Z,122.22
2019-01-10T04:13:15.109Z,126.72
2019-01-10T04:14:18.408Z,124.87
2019-01-10T04:15:21.859Z,118.35
2019-01-10T04:16:25.147Z,121.10
2019-01-10T04:17:28.470Z,128.35
2019-01-10T04:18:31.753Z,114.90
2019-01-10T04:19:35.045Z,121.05
2019-01-10T04:20:38.338Z,116.77
2019-01-10T04:21:41.633Z,124.42
2019-01-10T04:22:45.418Z,117.25
2019-01-10T04:23:48.705Z,119.67
2019-01-10T04:24:51.991Z,116.35
2019-01-10T04:25:55.301Z,114.05
2019-01-10T04:26:58.592Z,107.45
2019-01-10T04:28:01.907Z,113.52
2019-01-10T04:29:05.199Z,106.55
2019-01-10T04:30:15.091Z,113.57
2019-01-10T04:31:18.387Z,104.40
2019-01-10T04:32:21.675Z,110.63
2019-01-10T04:33:25.010Z,101.97
2019-01-10T04:34:28.298Z,111.40
2019-01-10T04:35:31.581Z,174.40
2019-01-10T04:36:34.885Z,170.77
2019-01-10T04:37:38.168Z,110.92
2019-01-10T04:38:41.939Z,128.27
2019-01-10T04:39:45.230Z,136.18
2019-01-10T04:40:48.590Z,117.75
2019-01-10T04:41:51.876Z,122.85
2019-01-10T04:42:55.159Z,121.05
2019-01-10T04:44:06.939Z,103.22
2019-01-10T04:45:04.922Z,102.02
2019-01-10T04:46:08.206Z,117.10
2019-01-10T04:47:11.568Z,107.47
2019-01-10T04:48:14.869Z,133.30
2019-01-10T04:49:18.198Z,150.75
2019-01-10T04:50:21.498Z,144.60
2019-01-10T04:51:25.095Z,163.00
2019-01-10T04:52:28.421Z,153.15
2019-01-10T04:53:31.717Z,128.87
2019-01-10T04:54:38.408Z,128.27
2019-01-10T04:55:40.055Z,121.77
2019-01-10T04:56:43.350Z,118.00
2019-01-10T04:57:46.701Z,121.25
2019-01-10T04:58:49.991Z,119.22
2019-01-10T04:59:53.322Z,123.40
2019-01-10T05:00:56.617Z,110.50
2019-01-10T05:01:59.906Z,132.82
2019-01-10T05:03:03.209Z,131.78
2019-01-10T05:04:06.591Z,127.82
2019-01-10T05:05:09.921Z,128.70
2019-01-10T05:06:13.213Z,124.25
2019-01-10T05:07:16.505Z,131.90
2019-01-10T05:08:20.295Z,135.85
2019-01-10T05:09:23.666Z,134.10
2019-01-10T05:10:27.378Z,139.07
2019-01-10T05:11:34.231Z,128.18
2019-01-10T05:12:37.545Z,125.25
2019-01-10T05:13:40.833Z,126.75
2019-01-10T05:14:44.126Z,140.90
2019-01-10T05:15:47.531Z,157.65
2019-01-10T05:16:50.894Z,195.97
2019-01-10T05:17:54.176Z,156.43
2019-01-10T05:18:57.839Z,132.57
2019-01-10T05:20:01.150Z,136.97
2019-01-10T05:21:04.490Z,127.32
2019-01-10T05:22:07.835Z,128.82
2019-01-10T05:23:11.119Z,132.60
2019-01-10T05:24:14.404Z,128.42
2019-01-10T05:25:17.715Z,130.12
2019-01-10T05:26:21.109Z,130.22
2019-01-10T05:27:24.520Z,136.15
2019-01-10T05:28:27.977Z,141.40
2019-01-10T05:29:31.325Z,139.37
2019-01-10T05:30:34.721Z,145.28
2019-01-10T05:31:38.294Z,147.10
2019-01-10T05:32:41.841Z,131.97
2019-01-10T05:33:45.206Z,140.68
2019-01-10T05:34:48.564Z,175.27
2019-01-10T05:35:52.219Z,169.70
2019-01-10T05:36:55.583Z,149.65
2019-01-10T05:37:59.071Z,149.42
2019-01-10T05:39:02.512Z,146.37
2019-01-10T05:40:09.308Z,147.85
2019-01-10T05:41:12.684Z,165.12
2019-01-10T05:42:16.126Z,148.62
2019-01-10T05:43:19.591Z,135.00
2019-01-10T05:44:26.642Z,160.93
2019-01-10T05:45:28.187Z,129.70
2019-01-10T05:46:31.481Z,122.87
2019-01-10T05:47:36.943Z,120.30
2019-01-10T05:48:47.279Z,133.82
2019-01-10T05:49:45.971Z,134.57
2019-01-10T05:50:49.260Z,117.15
2019-01-10T05:51:52.802Z,107.32
2019-01-10T05:52:56.104Z,118.53
2019-01-10T05:53:59.498Z,107.40
2019-01-10T05:55:02.900Z,112.45
2019-01-10T05:56:15.065Z,117.05
2019-01-10T05:57:11.510Z,117.25
2019-01-10T05:58:15.008Z,113.20
2019-01-10T05:59:18.467Z,112.25
2019-01-10T06:00:25.989Z,139.35
2019-01-10T06:01:29.386Z,138.88
2019-01-10T06:02:32.818Z,132.47
2019-01-10T06:03:36.186Z,124.38
2019-01-10T06:04:39.641Z,124.67
2019-01-10T06:05:43.153Z,124.38
2019-01-10T06:06:46.516Z,129.50
2019-01-10T06:07:49.943Z,130.78
2019-01-10T06:08:53.378Z,113.83
2019-01-10T06:09:57.020Z,123.18
2019-01-10T06:11:00.456Z,118.20
2019-01-10T06:12:04.003Z,114.92
2019-01-10T06:13:07.320Z,116.45
2019-01-10T06:14:10.754Z,109.78
2019-01-10T06:15:17.662Z,116.65
2019-01-10T06:16:20.941Z,110.85
2019-01-10T06:17:24.391Z,112.05
2019-01-10T06:18:28.133Z,110.40
2019-01-10T06:19:31.983Z,109.32
2019-01-10T06:20:35.519Z,112.22
2019-01-10T06:21:38.994Z,122.65
2019-01-10T06:22:42.435Z,119.75
2019-01-10T06:23:45.931Z,134.80
2019-01-10T06:24:49.283Z,152.43
2019-01-10T06:25:52.760Z,150.42
2019-01-10T06:26:56.252Z,145.50
2019-01-10T06:27:59.856Z,148.10
2019-01-10T06:29:03.327Z,153.85
2019-01-10T06:30:15.782Z,152.53
2019-01-10T06:31:19.246Z,160.15
2019-01-10T06:32:22.669Z,143.55
2019-01-10T06:33:26.096Z,152.50
2019-01-10T06:34:29.376Z,168.82
2019-01-10T06:35:32.738Z,158.00
2019-01-10T06:36:36.122Z,154.23
2019-01-10T06:37:39.514Z,150.62
2019-01-10T06:38:42.834Z,129.93
2019-01-10T06:39:46.195Z,134.18
2019-01-10T06:40:49.550Z,131.82
2019-01-10T06:41:53.199Z,123.55
2019-01-10T06:42:56.558Z,121.25
2019-01-10T06:43:59.993Z,130.75
2019-01-10T06:45:03.423Z,110.08
2019-01-10T06:46:06.779Z,124.65
2019-01-10T06:47:10.321Z,113.77
2019-01-10T06:48:14.010Z,112.12
2019-01-10T06:49:17.503Z,110.35
2019-01-10T06:50:21.065Z,121.80
2019-01-10T06:51:24.930Z,110.50
2019-01-10T06:52:28.399Z,112.55
2019-01-10T06:53:31.754Z,112.50
2019-01-10T06:54:35.090Z,116.47
2019-01-10T06:55:38.441Z,145.30
2019-01-10T06:56:41.872Z,144.20
2019-01-10T06:57:45.327Z,145.30
2019-01-10T06:58:49.061Z,153.25
2019-01-10T06:59:52.563Z,143.85
2019-01-10T07:00:55.987Z,160.03
2019-01-10T07:01:59.433Z,156.43
2019-01-10T07:03:02.967Z,160.03
2019-01-10T07:04:06.331Z,145.38
2019-01-10T07:05:11.164Z,144.57
2019-01-10T07:06:14.604Z,168.62
2019-01-10T07:07:17.900Z,158.85
2019-01-10T07:08:21.232Z,141.40
2019-01-10T07:09:24.602Z,124.02
2019-01-10T07:10:29.061Z,139.65
2019-01-10T07:11:32.649Z,141.92
2019-01-10T07:12:36.010Z,138.52
2019-01-10T07:13:39.349Z,135.63
2019-01-10T07:14:42.636Z,130.82
2019-01-10T07:15:45.926Z,135.28
2019-01-10T07:16:53.694Z,130.22
2019-01-10T07:17:54.285Z,110.72
2019-01-10T07:18:57.704Z,126.82
2019-01-10T07:20:01.069Z,115.35
2019-01-10T07:21:04.468Z,111.20
2019-01-10T07:22:07.735Z,113.52
2019-01-10T07:23:11.032Z,106.87
2019-01-10T07:24:14.355Z,105.12
2019-01-10T07:25:17.680Z,97.95
2019-01-10T07:26:20.967Z,97.75
2019-01-10T07:27:24.263Z,102.25
2019-01-10T07:28:27.631Z,106.32
2019-01-10T07:29:30.973Z,132.30
2019-01-10T07:30:36.161Z,171.82
2019-01-10T07:31:39.299Z,175.65
2019-01-10T07:32:42.600Z,185.95
2019-01-10T07:33:45.895Z,166.00
2019-01-10T07:34:49.240Z,154.50
2019-01-10T07:35:54.266Z,163.12
2019-01-10T07:36:57.624Z,179.50
2019-01-10T07:38:00.931Z,172.43
2019-01-10T07:39:07.025Z,171.68
2019-01-10T07:40:13.385Z,180.15
2019-01-10T07:41:16.679Z,164.52
2019-01-10T07:42:19.974Z,156.90
2019-01-10T07:43:23.839Z,135.22
2019-01-10T07:44:27.232Z,150.68
2019-01-10T07:45:30.568Z,158.68
2019-01-10T07:46:33.935Z,158.95
2019-01-10T07:47:49.763Z,173.65
2019-01-10T07:48:53.126Z,147.70
2019-01-10T07:49:57.652Z,165.88
2019-01-10T07:51:00.991Z,146.75
2019-01-10T07:52:04.283Z,125.70
2019-01-10T07:53:07.574Z,115.95
2019-01-10T07:54:10.871Z,108.40
2019-01-10T07:55:14.581Z,111.75
2019-01-10T07:56:17.898Z,114.28
2019-01-10T07:57:21.193Z,112.97
2019-01-10T07:58:24.474Z,112.00
2019-01-10T07:59:28.238Z,109.27
2019-01-10T08:00:31.535Z,106.92
2019-01-10T08:01:34.948Z,111.90
2019-01-10T08:02:38.237Z,103.60
2019-01-10T08:03:41.588Z,115.82
2019-01-10T08:04:44.916Z,105.90
2019-01-10T08:05:48.521Z,108.12
2019-01-10T08:06:51.855Z,107.32
2019-01-10T08:07:55.191Z,115.95
2019-01-10T08:08:58.507Z,123.62
2019-01-10T08:10:01.798Z,121.55
2019-01-10T08:11:05.150Z,120.30
2019-01-10T08:12:08.479Z,129.80
2019-01-10T08:13:11.770Z,112.55
2019-01-10T08:14:15.058Z,122.13
2019-01-10T08:15:20.591Z,121.47
2019-01-10T08:16:23.877Z,198.80
2019-01-10T08:17:27.193Z,203.47
2019-01-10T08:18:30.729Z,178.93
2019-01-10T08:19:34.125Z,168.85
2019-01-10T08:20:37.414Z,167.43
2019-01-10T08:21:40.716Z,184.03
2019-01-10T08:22:44.049Z,178.82
2019-01-10T08:23:47.721Z,198.05
2019-01-10T08:24:51.454Z,202.13
2019-01-10T08:25:54.746Z,198.47
2019-01-10T08:26:58.037Z,158.50
2019-01-10T08:28:01.352Z,180.18
2019-01-10T08:29:05.128Z,178.45
2019-01-10T08:30:11.701Z,161.68
2019-01-10T08:31:15.047Z,164.52
2019-01-10T08:32:18.352Z,146.65
2019-01-10T08:33:21.645Z,146.25
2019-01-10T08:34:25.013Z,151.63
2019-01-10T08:35:28.380Z,144.05
2019-01-10T08:36:32.550Z,165.85
2019-01-10T08:37:36.143Z,176.80
2019-01-10T08:38:39.474Z,162.55
2019-01-10T08:39:42.767Z,160.63
2019-01-10T08:40:46.055Z,151.00
2019-01-10T08:41:49.423Z,154.05
2019-01-10T08:42:52.844Z,159.18
2019-01-10T08:43:56.200Z,161.00
2019-01-10T08:44:59.500Z,153.50
2019-01-10T08:46:02.769Z,161.00
2019-01-10T08:47:06.083Z,167.35
2019-01-10T08:48:09.361Z,155.95
2019-01-10T08:49:12.696Z,178.93
2019-01-10T08:50:18.798Z,172.57
2019-01-10T08:51:22.453Z,170.43
2019-01-10T08:52:26.689Z,263.68
2019-01-10T08:53:29.973Z,234.65
2019-01-10T08:54:33.304Z,255.22
2019-01-10T08:55:36.668Z,242.10
2019-01-10T08:56:40.037Z,243.93
2019-01-10T08:57:43.332Z,209.92
2019-01-10T08:58:46.630Z,207.47
2019-01-10T08:59:49.957Z,191.82
2019-01-10T09:00:53.341Z,186.67
2019-01-10T09:01:56.628Z,182.70
2019-01-10T09:02:59.932Z,216.20
2019-01-10T09:04:03.295Z,197.10
2019-01-10T09:05:07.046Z,244.90
2019-01-10T09:06:10.334Z,216.00
2019-01-10T09:07:13.652Z,214.97
2019-01-10T09:08:16.918Z,206.60
2019-01-10T09:09:20.234Z,187.82
2019-01-10T09:10:25.280Z,176.42
2019-01-10T09:11:28.641Z,175.32
2019-01-10T09:12:32.490Z,178.82
2019-01-10T09:13:35.855Z,176.35
2019-01-10T09:14:39.141Z,177.75
2019-01-10T09:15:42.448Z,174.97
2019-01-10T09:16:45.740Z,173.82
2019-01-10T09:17:49.045Z,158.03
2019-01-10T09:18:52.332Z,150.62
2019-01-10T09:19:55.618Z,158.85
2019-01-10T09:21:04.158Z,146.45
2019-01-10T09:22:04.105Z,149.27
2019-01-10T09:23:07.389Z,160.40
2019-01-10T09:24:10.671Z,151.80
2019-01-10T09:25:13.958Z,141.80
2019-01-10T09:26:17.286Z,133.12
2019-01-10T09:27:21.417Z,135.07
2019-01-10T09:28:24.714Z,128.53
2019-01-10T09:29:28.027Z,141.18
2019-01-10T09:30:31.319Z,122.98
2019-01-10T09:31:34.641Z,131.37
2019-01-10T09:32:37.930Z,136.70
2019-01-10T09:33:41.289Z,127.92
2019-01-10T09:34:44.573Z,125.33
2019-01-10T09:35:47.860Z,126.75
2019-01-10T09:36:51.199Z,122.20
2019-01-10T09:37:54.754Z,113.40
2019-01-10T09:38:58.040Z,112.12
2019-01-10T09:40:01.342Z,119.30
2019-01-10T09:41:04.615Z,112.55
2019-01-10T09:42:07.947Z,112.72
2019-01-10T09:43:11.597Z,115.95
2019-01-10T09:44:14.879Z,117.00
2019-01-10T09:45:20.218Z,108.92
2019-01-10T09:46:26.676Z,111.55
2019-01-10T09:47:30.039Z,112.92
2019-01-10T09:48:33.409Z,113.20
2019-01-10T09:49:36.773Z,106.63
2019-01-10T09:50:40.057Z,114.88
2019-01-10T09:51:44.388Z,179.72
2019-01-10T09:52:47.851Z,168.75
2019-01-10T09:53:51.256Z,149.75
2019-01-10T09:54:54.550Z,129.55
2019-01-10T09:55:57.848Z,116.00
2019-01-10T09:57:01.228Z,120.82
2019-01-10T09:58:04.953Z,112.08
2019-01-10T09:59:08.244Z,114.32
2019-01-10T10:00:17.835Z,111.83
2019-01-10T10:01:21.328Z,116.55
2019-01-10T10:02:24.713Z,117.30
2019-01-10T10:03:28.034Z,113.72
2019-01-10T10:04:31.334Z,120.57
2019-01-10T10:05:34.627Z,136.95
2019-01-10T10:06:37.914Z,150.05
2019-01-10T10:07:41.211Z,143.93
2019-01-10T10:08:44.948Z,134.22
2019-01-10T10:09:48.237Z,127.00
2019-01-10T10:10:51.518Z,114.20
2019-01-10T10:11:54.804Z,129.57
2019-01-10T10:12:58.159Z,122.95
2019-01-10T10:14:01.480Z,120.45
2019-01-10T10:15:09.361Z,121.95
2019-01-10T10:16:12.178Z,122.47
2019-01-10T10:17:15.536Z,143.57
2019-01-10T10:18:18.898Z,141.20
2019-01-10T10:19:22.230Z,130.78
2019-01-10T10:20:25.573Z,121.77
2019-01-10T10:21:28.860Z,124.58
2019-01-10T10:22:32.151Z,116.50
2019-01-10T10:23:35.770Z,117.87
2019-01-10T10:24:39.098Z,128.78
2019-01-10T10:25:42.460Z,133.70
2019-01-10T10:26:45.766Z,129.57
2019-01-10T10:27:49.190Z,140.40
2019-01-10T10:28:52.604Z,143.32
2019-01-10T10:29:56.002Z,136.40
2019-01-10T10:30:59.298Z,135.68
2019-01-10T10:32:02.649Z,137.95
2019-01-10T10:33:05.938Z,141.00
2019-01-10T10:34:09.241Z,142.00
2019-01-10T10:35:12.643Z,143.17
2019-01-10T10:36:15.946Z,143.22
2019-01-10T10:37:19.300Z,146.65
2019-01-10T10:38:22.584Z,153.60
2019-01-10T10:39:25.983Z,140.85
2019-01-10T10:40:29.347Z,134.45
2019-01-10T10:41:32.642Z,126.12
2019-01-10T10:42:35.926Z,139.28
2019-01-10T10:43:39.230Z,149.10
2019-01-10T10:44:42.577Z,150.72
2019-01-10T10:45:45.998Z,172.00
2019-01-10T10:46:49.286Z,163.80
2019-01-10T10:47:52.641Z,208.60
2019-01-10T10:48:55.925Z,159.30
2019-01-10T10:49:59.217Z,219.68
2019-01-10T10:51:02.601Z,201.12
2019-01-10T10:52:05.889Z,174.18
2019-01-10T10:53:09.770Z,145.02
2019-01-10T10:54:13.035Z,125.75
2019-01-10T10:55:16.344Z,122.80
2019-01-10T10:56:19.666Z,125.18
2019-01-10T10:57:23.020Z,121.13
2019-01-10T10:58:26.317Z,111.28
2019-01-10T10:59:29.637Z,115.40
2019-01-10T11:00:33.172Z,122.62
2019-01-10T11:01:36.519Z,131.10
2019-01-10T11:02:39.862Z,126.18
2019-01-10T11:03:43.147Z,120.70
2019-01-10T11:04:46.429Z,124.97
2019-01-10T11:05:49.779Z,137.68
2019-01-10T11:06:53.112Z,128.38
2019-01-10T11:07:56.404Z,159.48
2019-01-10T11:09:08.825Z,147.57
2019-01-10T11:10:08.199Z,125.27
2019-01-10T11:11:11.491Z,108.55
2019-01-10T11:12:14.886Z,105.45
2019-01-10T11:13:18.319Z,101.82
2019-01-10T11:14:21.615Z,109.42
2019-01-10T11:15:24.977Z,115.08
2019-01-10T11:16:28.340Z,119.20
2019-01-10T11:17:31.660Z,127.40
2019-01-10T11:18:34.940Z,120.75
2019-01-10T11:19:38.305Z,122.15
2019-01-10T11:20:42.053Z,123.62
2019-01-10T11:21:45.357Z,144.43
2019-01-10T11:22:48.923Z,157.82
2019-01-10T11:23:52.219Z,180.65
2019-01-10T11:24:55.514Z,164.97
2019-01-10T11:25:58.797Z,172.98
2019-01-10T11:27:02.161Z,154.82
2019-01-10T11:28:06.066Z,150.87
2019-01-10T11:29:09.426Z,144.45
2019-01-10T11:30:15.533Z,157.60
2019-01-10T11:31:18.820Z,219.68
2019-01-10T11:32:22.107Z,175.42
2019-01-10T11:33:25.528Z,168.25
2019-01-10T11:34:28.813Z,156.87
2019-01-10T11:35:32.110Z,158.85
2019-01-10T11:36:35.453Z,215.12
2019-01-10T11:37:38.743Z,206.38
2019-01-10T11:38:42.146Z,171.82
2019-01-10T11:39:45.518Z,162.18
2019-01-10T11:40:48.795Z,164.90
2019-01-10T11:41:52.084Z,162.22
2019-01-10T11:42:55.378Z,151.80
2019-01-10T11:43:58.711Z,146.53
2019-01-10T11:45:02.024Z,156.52
2019-01-10T11:46:05.427Z,149.53
2019-01-10T11:47:08.724Z,138.57
2019-01-10T11:48:12.012Z,135.97
2019-01-10T11:49:15.499Z,140.82
2019-01-10T11:50:18.795Z,143.32
2019-01-10T11:51:22.433Z,139.35
2019-01-10T11:52:25.722Z,172.55
2019-01-10T11:53:35.465Z,183.15
2019-01-10T11:54:34.169Z,189.30
2019-01-10T11:55:37.458Z,225.95
2019-01-10T11:56:40.821Z,216.40
2019-01-10T11:57:44.499Z,184.20
2019-01-10T11:58:47.780Z,159.20
2019-01-10T11:59:51.100Z,195.97
2019-01-10T12:00:54.482Z,162.82
2019-01-10T12:01:58.103Z,177.60
2019-01-10T12:03:01.386Z,188.72
2019-01-10T12:04:04.690Z,176.37
2019-01-10T12:05:09.135Z,169.40
2019-01-10T12:06:12.514Z,246.50
2019-01-10T12:07:15.804Z,203.20
2019-01-10T12:08:19.102Z,195.65
2019-01-10T12:09:22.398Z,158.80
2019-01-10T12:10:25.994Z,176.78
2019-01-10T12:11:29.297Z,221.18
2019-01-10T12:12:32.666Z,330.48
2019-01-10T12:13:36.007Z,197.78
2019-01-10T12:14:39.296Z,181.87
2019-01-10T12:15:42.623Z,171.53
2019-01-10T12:16:45.985Z,176.20
2019-01-10T12:17:49.348Z,159.72
2019-01-10T12:18:59.158Z,182.88
2019-01-10T12:19:57.823Z,191.12
2019-01-10T12:21:01.145Z,190.95
2019-01-10T12:22:04.447Z,195.47
2019-01-10T12:23:07.814Z,173.62
2019-01-10T12:24:11.107Z,177.15
2019-01-10T12:25:16.343Z,200.07
2019-01-10T12:26:19.765Z,190.90
2019-01-10T12:27:23.105Z,184.28
2019-01-10T12:28:26.703Z,161.30
2019-01-10T12:29:36.161Z,241.60
2019-01-10T12:30:35.267Z,202.10
2019-01-10T12:31:38.627Z,191.07
2019-01-10T12:32:41.925Z,171.98
2019-01-10T12:33:45.219Z,172.68
2019-01-10T12:34:48.801Z,173.02
2019-01-10T12:35:54.503Z,174.10
2019-01-10T12:37:00.518Z,168.95
2019-01-10T12:38:02.897Z,168.02
2019-01-10T12:39:07.454Z,170.90
2019-01-10T12:40:13.062Z,175.97
2019-01-10T12:41:16.346Z,166.18
2019-01-10T12:42:19.977Z,187.57
2019-01-10T12:43:23.272Z,180.85
2019-01-10T12:44:26.625Z,185.70
2019-01-10T12:45:29.907Z,187.88
2019-01-10T12:46:37.690Z,182.65
2019-01-10T12:47:39.178Z,178.02
2019-01-10T12:48:42.847Z,186.77
2019-01-10T12:49:46.255Z,203.52
2019-01-10T12:50:49.618Z,209.80
2019-01-10T12:51:52.928Z,222.20
2019-01-10T12:52:56.189Z,192.62
2019-01-10T12:53:59.494Z,195.18
2019-01-10T12:55:02.944Z,185.80
2019-01-10T12:56:06.234Z,186.57
2019-01-10T12:57:09.837Z,183.60
2019-01-10T12:58:13.204Z,186.07
2019-01-10T12:59:16.559Z,169.00
2019-01-10T13:00:24.275Z,175.05
2019-01-10T13:01:27.553Z,188.07
2019-01-10T13:02:30.838Z,191.62
2019-01-10T13:03:34.131Z,197.10
2019-01-10T13:04:37.486Z,192.62
2019-01-10T13:05:40.858Z,207.87
2019-01-10T13:06:44.248Z,201.92
2019-01-10T13:07:47.553Z,240.10
2019-01-10T13:08:50.883Z,344.73
2019-01-10T13:09:54.177Z,228.50
2019-01-10T13:10:57.484Z,188.60
2019-01-10T13:12:00.772Z,225.03
2019-01-10T13:13:04.131Z,200.07
2019-01-10T13:14:07.483Z,245.67
2019-01-10T13:15:14.077Z,261.92
2019-01-10T13:16:17.385Z,183.55
2019-01-10T13:17:20.672Z,193.30
2019-01-10T13:18:24.043Z,195.07
2019-01-10T13:19:29.858Z,181.30